sensor_id;sensor_type;location;lat;lon;timestamp;P1;durP1;ratioP1;P2;durP2;ratioP2
23388;SDS011;11867;51.198;11.966;2022-12-07T00:03:39;12.00;;;7.95;;
23388;SDS011;11867;51.198;11.966;2022-12-07T00:08:44;13.23;;;8.95;;
23388;SDS011;11867;51.198;11.966;2022-12-07T00:13:50;10.47;;;6.47;;
23388;SDS011;11867;51.198;11.966;2022-12-07T00:18:54;13.80;;;8.88;;
23388;SDS011;11867;51.198;11.966;2022-12-07T00:23:57;14.00;;;8.50;;
23388;SDS011;11867;51.198;11.966;2022-12-07T00:29:02;11.45;;;7.70;;
23388;SDS011;11867;51.198;11.966;2022-12-07T00:34:09;12.40;;;7.93;;
23388;SDS011;11867;51.198;11.966;2022-12-07T00:39:15;11.57;;;8.00;;
23388;SDS011;11867;51.198;11.966;2022-12-07T00:44:20;14.63;;;8.18;;
23388;SDS011;11867;51.198;11.966;2022-12-07T00:49:25;10.18;;;7.30;;
23388;SDS011;11867;51.198;11.966;2022-12-07T00:54:28;10.75;;;7.05;;
23388;SDS011;11867;51.198;11.966;2022-12-07T00:59:35;10.15;;;6.70;;
23388;SDS011;11867;51.198;11.966;2022-12-07T01:04:38;9.82;;;6.80;;
23388;SDS011;11867;51.198;11.966;2022-12-07T01:09:40;10.48;;;7.22;;
23388;SDS011;11867;51.198;11.966;2022-12-07T01:14:44;9.48;;;6.30;;
23388;SDS011;11867;51.198;11.966;2022-12-07T01:19:47;8.68;;;5.18;;
23388;SDS011;11867;51.198;11.966;2022-12-07T01:24:50;13.65;;;7.32;;
23388;SDS011;11867;51.198;11.966;2022-12-07T01:29:54;10.35;;;7.00;;
23388;SDS011;11867;51.198;11.966;2022-12-07T01:34:56;6.68;;;4.38;;
23388;SDS011;11867;51.198;11.966;2022-12-07T01:39:59;9.77;;;5.93;;
23388;SDS011;11867;51.198;11.966;2022-12-07T01:45:25;8.20;;;6.07;;
23388;SDS011;11867;51.198;11.966;2022-12-07T01:50:39;8.07;;;5.80;;
23388;SDS011;11867;51.198;11.966;2022-12-07T01:55:44;10.98;;;6.43;;
23388;SDS011;11867;51.198;11.966;2022-12-07T02:00:52;10.20;;;6.57;;
23388;SDS011;11867;51.198;11.966;2022-12-07T02:05:55;6.93;;;4.68;;
23388;SDS011;11867;51.198;11.966;2022-12-07T02:11:00;10.82;;;6.53;;
23388;SDS011;11867;51.198;11.966;2022-12-07T02:21:34;12.88;;;6.55;;
23388;SDS011;11867;51.198;11.966;2022-12-07T02:32:29;10.35;;;7.10;;
23388;SDS011;11867;51.198;11.966;2022-12-07T02:37:42;12.15;;;7.45;;
23388;SDS011;11867;51.198;11.966;2022-12-07T02:42:53;12.75;;;6.88;;
23388;SDS011;11867;51.198;11.966;2022-12-07T02:48:07;8.30;;;5.10;;
23388;SDS011;11867;51.198;11.966;2022-12-07T02:53:32;10.02;;;6.53;;
23388;SDS011;11867;51.198;11.966;2022-12-07T02:58:41;9.82;;;6.28;;
23388;SDS011;11867;51.198;11.966;2022-12-07T03:03:57;11.10;;;6.50;;
23388;SDS011;11867;51.198;11.966;2022-12-07T03:09:06;8.65;;;5.90;;
23388;SDS011;11867;51.198;11.966;2022-12-07T03:14:17;10.52;;;5.80;;
23388;SDS011;11867;51.198;11.966;2022-12-07T03:19:27;8.75;;;5.38;;
23388;SDS011;11867;51.198;11.966;2022-12-07T03:24:34;7.97;;;5.90;;
23388;SDS011;11867;51.198;11.966;2022-12-07T03:29:40;9.30;;;5.07;;
23388;SDS011;11867;51.198;11.966;2022-12-07T03:34:49;7.07;;;4.70;;
23388;SDS011;11867;51.198;11.966;2022-12-07T03:39:57;7.95;;;4.65;;
23388;SDS011;11867;51.198;11.966;2022-12-07T03:45:06;7.40;;;4.38;;
23388;SDS011;11867;51.198;11.966;2022-12-07T03:50:12;5.95;;;3.75;;
23388;SDS011;11867;51.198;11.966;2022-12-07T03:55:23;8.77;;;4.95;;
23388;SDS011;11867;51.198;11.966;2022-12-07T04:00:29;7.30;;;5.22;;
23388;SDS011;11867;51.198;11.966;2022-12-07T04:05:33;8.73;;;5.05;;
23388;SDS011;11867;51.198;11.966;2022-12-07T04:10:36;6.75;;;4.03;;
23388;SDS011;11867;51.198;11.966;2022-12-07T04:15:38;7.60;;;5.68;;
23388;SDS011;11867;51.198;11.966;2022-12-07T04:20:42;9.02;;;6.07;;
23388;SDS011;11867;51.198;11.966;2022-12-07T04:25:47;6.95;;;4.53;;
23388;SDS011;11867;51.198;11.966;2022-12-07T04:30:50;9.10;;;6.00;;
23388;SDS011;11867;51.198;11.966;2022-12-07T04:35:54;9.32;;;6.57;;
23388;SDS011;11867;51.198;11.966;2022-12-07T04:40:58;7.50;;;5.78;;
23388;SDS011;11867;51.198;11.966;2022-12-07T04:46:01;9.07;;;6.57;;
23388;SDS011;11867;51.198;11.966;2022-12-07T04:51:05;8.43;;;6.60;;
23388;SDS011;11867;51.198;11.966;2022-12-07T04:56:08;8.35;;;4.95;;
23388;SDS011;11867;51.198;11.966;2022-12-07T05:01:11;10.38;;;6.93;;
23388;SDS011;11867;51.198;11.966;2022-12-07T05:06:15;11.05;;;7.13;;
23388;SDS011;11867;51.198;11.966;2022-12-07T05:11:18;9.18;;;5.97;;
23388;SDS011;11867;51.198;11.966;2022-12-07T05:16:35;11.75;;;7.82;;
23388;SDS011;11867;51.198;11.966;2022-12-07T05:21:40;11.95;;;8.40;;
23388;SDS011;11867;51.198;11.966;2022-12-07T05:26:43;9.50;;;6.82;;
23388;SDS011;11867;51.198;11.966;2022-12-07T05:31:46;9.43;;;6.70;;
23388;SDS011;11867;51.198;11.966;2022-12-07T05:36:50;15.88;;;9.45;;
23388;SDS011;11867;51.198;11.966;2022-12-07T05:41:53;11.45;;;7.10;;
23388;SDS011;11867;51.198;11.966;2022-12-07T05:47:16;13.07;;;9.40;;
23388;SDS011;11867;51.198;11.966;2022-12-07T05:52:20;14.45;;;8.82;;
23388;SDS011;11867;51.198;11.966;2022-12-07T05:57:22;14.25;;;8.80;;
23388;SDS011;11867;51.198;11.966;2022-12-07T06:02:25;15.93;;;10.43;;
23388;SDS011;11867;51.198;11.966;2022-12-07T06:07:29;17.27;;;10.13;;
23388;SDS011;11867;51.198;11.966;2022-12-07T06:12:32;11.63;;;8.00;;
23388;SDS011;11867;51.198;11.966;2022-12-07T06:17:40;18.15;;;11.70;;
23388;SDS011;11867;51.198;11.966;2022-12-07T06:22:44;16.75;;;11.70;;
23388;SDS011;11867;51.198;11.966;2022-12-07T06:27:47;14.15;;;9.00;;
23388;SDS011;11867;51.198;11.966;2022-12-07T06:32:49;20.08;;;12.80;;
23388;SDS011;11867;51.198;11.966;2022-12-07T06:37:53;21.35;;;13.30;;
23388;SDS011;11867;51.198;11.966;2022-12-07T06:42:56;15.82;;;10.00;;
23388;SDS011;11867;51.198;11.966;2022-12-07T06:47:58;21.45;;;13.27;;
23388;SDS011;11867;51.198;11.966;2022-12-07T06:53:02;22.90;;;12.82;;
23388;SDS011;11867;51.198;11.966;2022-12-07T06:58:05;16.17;;;9.98;;
23388;SDS011;11867;51.198;11.966;2022-12-07T07:03:08;20.77;;;12.77;;
23388;SDS011;11867;51.198;11.966;2022-12-07T07:08:12;25.38;;;12.27;;
23388;SDS011;11867;51.198;11.966;2022-12-07T07:13:23;22.60;;;12.80;;
23388;SDS011;11867;51.198;11.966;2022-12-07T07:18:26;20.25;;;11.93;;
23388;SDS011;11867;51.198;11.966;2022-12-07T07:23:31;17.67;;;11.55;;
23388;SDS011;11867;51.198;11.966;2022-12-07T07:28:33;18.10;;;9.85;;
23388;SDS011;11867;51.198;11.966;2022-12-07T07:33:36;18.83;;;12.38;;
23388;SDS011;11867;51.198;11.966;2022-12-07T07:38:40;22.27;;;12.40;;
23388;SDS011;11867;51.198;11.966;2022-12-07T07:43:43;15.85;;;9.52;;
23388;SDS011;11867;51.198;11.966;2022-12-07T07:48:45;19.42;;;12.57;;
23388;SDS011;11867;51.198;11.966;2022-12-07T07:53:49;18.83;;;11.32;;
23388;SDS011;11867;51.198;11.966;2022-12-07T07:58:52;13.38;;;9.23;;
23388;SDS011;11867;51.198;11.966;2022-12-07T08:03:55;16.02;;;11.43;;
23388;SDS011;11867;51.198;11.966;2022-12-07T08:08:59;17.63;;;10.55;;
23388;SDS011;11867;51.198;11.966;2022-12-07T08:14:01;12.48;;;8.00;;
23388;SDS011;11867;51.198;11.966;2022-12-07T08:19:04;16.70;;;11.00;;
23388;SDS011;11867;51.198;11.966;2022-12-07T08:24:08;17.85;;;9.45;;
23388;SDS011;11867;51.198;11.966;2022-12-07T08:29:11;12.32;;;7.57;;
23388;SDS011;11867;51.198;11.966;2022-12-07T08:34:14;16.13;;;9.30;;
23388;SDS011;11867;51.198;11.966;2022-12-07T08:39:18;14.43;;;9.73;;
23388;SDS011;11867;51.198;11.966;2022-12-07T08:44:32;13.82;;;9.13;;
23388;SDS011;11867;51.198;11.966;2022-12-07T08:49:36;17.05;;;9.45;;
23388;SDS011;11867;51.198;11.966;2022-12-07T08:54:42;15.70;;;9.13;;
23388;SDS011;11867;51.198;11.966;2022-12-07T08:59:45;10.20;;;7.05;;
23388;SDS011;11867;51.198;11.966;2022-12-07T09:04:48;11.10;;;7.90;;
23388;SDS011;11867;51.198;11.966;2022-12-07T09:09:52;12.25;;;8.43;;
23388;SDS011;11867;51.198;11.966;2022-12-07T09:14:55;12.95;;;6.68;;
23388;SDS011;11867;51.198;11.966;2022-12-07T09:19:57;12.63;;;7.53;;
23388;SDS011;11867;51.198;11.966;2022-12-07T09:25:03;11.77;;;7.47;;
23388;SDS011;11867;51.198;11.966;2022-12-07T09:30:07;14.27;;;9.07;;
23388;SDS011;11867;51.198;11.966;2022-12-07T09:35:10;10.48;;;6.63;;
23388;SDS011;11867;51.198;11.966;2022-12-07T09:40:14;13.45;;;9.00;;
23388;SDS011;11867;51.198;11.966;2022-12-07T09:45:19;12.02;;;7.95;;
23388;SDS011;11867;51.198;11.966;2022-12-07T09:50:26;12.00;;;7.97;;
23388;SDS011;11867;51.198;11.966;2022-12-07T09:55:33;11.15;;;7.18;;
23388;SDS011;11867;51.198;11.966;2022-12-07T10:00:38;11.77;;;7.47;;
23388;SDS011;11867;51.198;11.966;2022-12-07T10:05:42;11.38;;;7.30;;
23388;SDS011;11867;51.198;11.966;2022-12-07T10:10:50;11.00;;;7.57;;
23388;SDS011;11867;51.198;11.966;2022-12-07T10:15:57;11.38;;;6.32;;
23388;SDS011;11867;51.198;11.966;2022-12-07T10:21:13;11.80;;;5.68;;
23388;SDS011;11867;51.198;11.966;2022-12-07T10:26:28;9.73;;;6.43;;
23388;SDS011;11867;51.198;11.966;2022-12-07T10:31:32;7.07;;;5.32;;
23388;SDS011;11867;51.198;11.966;2022-12-07T10:36:41;10.13;;;6.07;;
23388;SDS011;11867;51.198;11.966;2022-12-07T10:41:55;11.52;;;7.25;;
23388;SDS011;11867;51.198;11.966;2022-12-07T10:47:12;8.35;;;5.45;;
23388;SDS011;11867;51.198;11.966;2022-12-07T10:52:29;7.78;;;4.60;;
23388;SDS011;11867;51.198;11.966;2022-12-07T10:57:49;6.45;;;4.72;;
23388;SDS011;11867;51.198;11.966;2022-12-07T11:03:09;9.73;;;5.63;;
23388;SDS011;11867;51.198;11.966;2022-12-07T11:08:36;14.55;;;8.32;;
23388;SDS011;11867;51.198;11.966;2022-12-07T11:13:51;7.00;;;4.35;;
23388;SDS011;11867;51.198;11.966;2022-12-07T11:19:11;11.75;;;7.93;;
23388;SDS011;11867;51.198;11.966;2022-12-07T11:24:31;11.25;;;5.93;;
23388;SDS011;11867;51.198;11.966;2022-12-07T11:35:24;6.60;;;2.95;;
23388;SDS011;11867;51.198;11.966;2022-12-07T11:40:37;4.07;;;2.75;;
23388;SDS011;11867;51.198;11.966;2022-12-07T11:50:47;4.28;;;1.85;;
23388;SDS011;11867;51.198;11.966;2022-12-07T11:55:55;2.65;;;1.27;;
23388;SDS011;11867;51.198;11.966;2022-12-07T12:01:11;5.43;;;1.40;;
23388;SDS011;11867;51.198;11.966;2022-12-07T12:11:29;4.85;;;2.03;;
23388;SDS011;11867;51.198;11.966;2022-12-07T12:16:52;4.70;;;1.88;;
23388;SDS011;11867;51.198;11.966;2022-12-07T12:22:11;7.22;;;1.67;;
23388;SDS011;11867;51.198;11.966;2022-12-07T12:27:21;5.30;;;1.48;;
23388;SDS011;11867;51.198;11.966;2022-12-07T12:32:36;2.58;;;1.48;;
23388;SDS011;11867;51.198;11.966;2022-12-07T12:37:45;3.72;;;1.80;;
23388;SDS011;11867;51.198;11.966;2022-12-07T12:42:49;4.57;;;1.77;;
23388;SDS011;11867;51.198;11.966;2022-12-07T12:47:55;5.28;;;1.50;;
23388;SDS011;11867;51.198;11.966;2022-12-07T12:53:04;5.70;;;1.80;;
23388;SDS011;11867;51.198;11.966;2022-12-07T12:58:28;5.15;;;1.63;;
23388;SDS011;11867;51.198;11.966;2022-12-07T13:03:34;11.00;;;1.35;;
23388;SDS011;11867;51.198;11.966;2022-12-07T13:08:39;2.25;;;1.15;;
23388;SDS011;11867;51.198;11.966;2022-12-07T13:13:45;6.65;;;1.60;;
23388;SDS011;11867;51.198;11.966;2022-12-07T13:18:49;4.22;;;1.73;;
23388;SDS011;11867;51.198;11.966;2022-12-07T13:23:53;3.63;;;1.70;;
23388;SDS011;11867;51.198;11.966;2022-12-07T13:29:05;4.43;;;1.77;;
23388;SDS011;11867;51.198;11.966;2022-12-07T13:34:30;4.72;;;1.70;;
23388;SDS011;11867;51.198;11.966;2022-12-07T13:39:35;3.38;;;1.40;;
23388;SDS011;11867;51.198;11.966;2022-12-07T13:44:47;2.65;;;1.45;;
23388;SDS011;11867;51.198;11.966;2022-12-07T13:49:52;3.38;;;1.80;;
23388;SDS011;11867;51.198;11.966;2022-12-07T13:54:56;3.60;;;1.60;;
23388;SDS011;11867;51.198;11.966;2022-12-07T14:05:09;2.67;;;1.50;;
23388;SDS011;11867;51.198;11.966;2022-12-07T14:10:23;5.38;;;1.50;;
23388;SDS011;11867;51.198;11.966;2022-12-07T14:15:28;4.85;;;1.60;;
23388;SDS011;11867;51.198;11.966;2022-12-07T14:20:35;2.13;;;1.38;;
23388;SDS011;11867;51.198;11.966;2022-12-07T14:25:45;3.55;;;1.58;;
23388;SDS011;11867;51.198;11.966;2022-12-07T14:30:51;4.40;;;1.60;;
23388;SDS011;11867;51.198;11.966;2022-12-07T14:35:56;2.53;;;1.42;;
23388;SDS011;11867;51.198;11.966;2022-12-07T14:40:59;4.18;;;1.65;;
23388;SDS011;11867;51.198;11.966;2022-12-07T14:46:16;3.80;;;1.30;;
23388;SDS011;11867;51.198;11.966;2022-12-07T14:51:25;3.05;;;1.02;;
23388;SDS011;11867;51.198;11.966;2022-12-07T14:56:47;2.13;;;1.17;;
23388;SDS011;11867;51.198;11.966;2022-12-07T15:01:51;3.35;;;0.90;;
23388;SDS011;11867;51.198;11.966;2022-12-07T15:06:56;5.18;;;1.30;;
23388;SDS011;11867;51.198;11.966;2022-12-07T15:11:59;4.63;;;2.22;;
23388;SDS011;11867;51.198;11.966;2022-12-07T15:17:02;11.23;;;4.18;;
23388;SDS011;11867;51.198;11.966;2022-12-07T15:22:13;2.88;;;1.55;;
23388;SDS011;11867;51.198;11.966;2022-12-07T15:27:16;17.05;;;6.45;;
23388;SDS011;11867;51.198;11.966;2022-12-07T15:32:18;12.38;;;4.90;;
23388;SDS011;11867;51.198;11.966;2022-12-07T15:37:24;12.30;;;5.20;;
23388;SDS011;11867;51.198;11.966;2022-12-07T15:42:26;5.25;;;1.33;;
23388;SDS011;11867;51.198;11.966;2022-12-07T15:47:29;4.20;;;1.52;;
23388;SDS011;11867;51.198;11.966;2022-12-07T15:52:33;3.47;;;1.60;;
